Time;durP1;ratioP1;P1;durP2;ratioP2;P2;SDS_P1;SDS_P2;PMS_P1;PMS_P2;Temp;Humidity;BMP_temperature;BMP_pressure;BME280_temperature;BME280_humidity;BME280_pressure;Samples;Min_cycle;Max_cycle;Signal;HPM_P1;HPM_P2
2022/03/11 00:00:49;;;;;;;40.45;21.58;;;;;;;;;;4996967;28;20399;-55
2022/03/11 00:03:16;;;;;;;38.22;20.65;;;;;;;;;;4996171;28;20026;-53
2022/03/11 00:05:42;;;;;;;36.15;19.00;;;;;;;;;;4996500;28;20080;-55
2022/03/11 00:08:09;;;;;;;32.20;18.95;;;;;;;;;;5000072;28;20040;-52
2022/03/11 00:10:35;;;;;;;35.08;19.10;;;;;;;;;;5015814;28;20048;-54
2022/03/11 00:13:01;;;;;;;37.22;20.42;;;;;;;;;;5016577;28;20095;-52
2022/03/11 00:15:27;;;;;;;37.47;19.92;;;;;;;;;;5012221;28;20025;-55
2022/03/11 00:17:53;;;;;;;39.72;21.50;;;;;;;;;;4995479;28;20453;-53
2022/03/11 00:20:20;;;;;;;33.85;18.55;;;;;;;;;;4996568;28;20019;-52
2022/03/11 00:22:50;;;;;;;32.95;18.17;;;;;;;;;;5000393;28;20478;-55
2022/03/11 00:25:17;;;;;;;37.13;19.38;;;;;;;;;;5015784;28;20022;-53
2022/03/11 00:27:43;;;;;;;37.05;19.17;;;;;;;;;;5015691;28;20034;-52
2022/03/11 00:30:10;;;;;;;37.22;18.58;;;;;;;;;;5015724;28;20026;-55
2022/03/11 00:32:36;;;;;;;33.47;17.77;;;;;;;;;;5015409;28;20025;-53
2022/03/11 00:35:04;;;;;;;33.33;15.63;;;;;;;;;;5015592;28;20022;-56
2022/03/11 00:37:30;;;;;;;32.08;14.48;;;;;;;;;;4996102;28;20073;-53
2022/03/11 00:39:56;;;;;;;26.10;13.68;;;;;;;;;;5011688;28;20079;-52
2022/03/11 00:42:22;;;;;;;29.35;13.55;;;;;;;;;;5015552;28;20399;-55
2022/03/11 00:44:48;;;;;;;23.08;11.80;;;;;;;;;;5015428;28;20419;-56
2022/03/11 00:47:14;;;;;;;24.48;12.23;;;;;;;;;;5015376;28;20022;-54
2022/03/11 00:49:40;;;;;;;28.65;12.68;;;;;;;;;;5015348;28;20018;-55
2022/03/11 00:52:07;;;;;;;22.60;12.02;;;;;;;;;;5015015;28;20017;-53
2022/03/11 00:54:33;;;;;;;28.38;13.20;;;;;;;;;;5015538;28;20026;-54
2022/03/11 00:56:59;;;;;;;24.25;12.82;;;;;;;;;;5015589;28;20028;-53
2022/03/11 00:59:25;;;;;;;25.85;12.68;;;;;;;;;;5015206;28;20057;-56
2022/03/11 01:01:51;;;;;;;33.92;12.90;;;;;;;;;;5015206;28;20029;-52
2022/03/11 01:04:17;;;;;;;31.88;13.23;;;;;;;;;;5015417;28;20028;-52
2022/03/11 01:06:43;;;;;;;23.17;11.65;;;;;;;;;;5014966;28;20391;-55
2022/03/11 01:09:10;;;;;;;21.45;11.90;;;;;;;;;;5015229;28;20161;-56
2022/03/11 01:11:36;;;;;;;24.67;12.88;;;;;;;;;;5014915;28;20451;-55
2022/03/11 01:14:03;;;;;;;22.67;12.00;;;;;;;;;;5014954;28;20107;-54
2022/03/11 01:16:29;;;;;;;27.30;13.40;;;;;;;;;;5015118;28;20021;-53
2022/03/11 01:18:55;;;;;;;24.42;12.25;;;;;;;;;;5015129;28;20360;-54
2022/03/11 01:21:22;;;;;;;29.13;12.30;;;;;;;;;;5014640;28;20028;-55
2022/03/11 01:23:48;;;;;;;25.27;12.50;;;;;;;;;;5006291;28;20118;-54
2022/03/11 01:26:16;;;;;;;28.23;13.27;;;;;;;;;;4994055;28;20080;-52
2022/03/11 01:28:43;;;;;;;24.77;13.85;;;;;;;;;;4993983;28;20034;-53
2022/03/11 01:31:11;;;;;;;28.67;13.88;;;;;;;;;;4995203;28;20047;-54
2022/03/11 01:33:41;;;;;;;26.10;12.45;;;;;;;;;;4994612;28;20032;-51
2022/03/11 01:36:07;;;;;;;24.38;12.50;;;;;;;;;;4994924;28;20476;-52
2022/03/11 01:38:34;;;;;;;23.45;11.90;;;;;;;;;;4995146;28;20120;-52
2022/03/11 01:41:00;;;;;;;21.42;11.98;;;;;;;;;;4994619;28;20030;-50
2022/03/11 01:43:27;;;;;;;21.95;11.13;;;;;;;;;;4995289;28;20030;-54
2022/03/11 01:45:54;;;;;;;23.85;12.07;;;;;;;;;;4995094;28;20029;-54
2022/03/11 01:48:20;;;;;;;21.08;11.60;;;;;;;;;;4994839;28;20463;-51
2022/03/11 01:50:46;;;;;;;24.08;11.60;;;;;;;;;;4994736;28;20026;-54
2022/03/11 01:53:13;;;;;;;29.27;15.88;;;;;;;;;;5003778;28;20109;-49
2022/03/11 01:55:39;;;;;;;24.20;12.93;;;;;;;;;;5014097;28;20022;-53
2022/03/11 01:58:06;;;;;;;25.15;12.35;;;;;;;;;;5014212;28;20036;-50
2022/03/11 02:00:38;;;;;;;23.55;12.27;;;;;;;;;;5014995;28;20025;-53
2022/03/11 02:03:05;;;;;;;18.85;10.40;;;;;;;;;;5014246;28;20033;-53
2022/03/11 02:05:31;;;;;;;21.45;10.95;;;;;;;;;;5014015;28;20022;-55
2022/03/11 02:08:00;;;;;;;19.35;10.20;;;;;;;;;;5013874;28;20067;-52
2022/03/11 02:10:29;;;;;;;19.60;9.82;;;;;;;;;;5014009;28;20402;-54
2022/03/11 02:12:56;;;;;;;16.05;9.32;;;;;;;;;;5014129;28;20026;-57
2022/03/11 02:15:22;;;;;;;17.85;9.95;;;;;;;;;;5013907;28;20025;-53
2022/03/11 02:17:48;;;;;;;19.90;10.85;;;;;;;;;;5014110;28;20040;-54
2022/03/11 02:20:14;;;;;;;21.10;10.38;;;;;;;;;;5013736;28;20069;-52
2022/03/11 02:22:41;;;;;;;17.83;9.15;;;;;;;;;;5013470;28;20041;-53
2022/03/11 02:25:08;;;;;;;20.13;10.00;;;;;;;;;;5014065;28;20033;-54
2022/03/11 02:27:35;;;;;;;16.33;8.93;;;;;;;;;;5014123;28;20371;-55
2022/03/11 02:30:02;;;;;;;18.73;9.85;;;;;;;;;;5013663;28;20441;-53
2022/03/11 02:32:28;;;;;;;18.15;10.02;;;;;;;;;;5013657;28;20030;-49
2022/03/11 02:34:54;;;;;;;17.23;9.60;;;;;;;;;;5013969;28;20022;-51
2022/03/11 02:37:20;;;;;;;20.92;10.27;;;;;;;;;;5013310;28;20471;-53
2022/03/11 02:39:46;;;;;;;19.08;9.65;;;;;;;;;;5015370;28;20026;-52
2022/03/11 02:42:12;;;;;;;21.65;9.43;;;;;;;;;;5020385;28;20053;-52
2022/03/11 02:44:40;;;;;;;15.63;9.30;;;;;;;;;;5020087;28;20025;-54
2022/03/11 02:47:06;;;;;;;21.38;10.35;;;;;;;;;;5020231;28;20030;-53
2022/03/11 02:49:32;;;;;;;19.00;9.80;;;;;;;;;;5020329;28;20032;-50
2022/03/11 02:51:58;;;;;;;51.78;23.13;;;;;;;;;;5019721;28;20033;-54
2022/03/11 02:54:24;;;;;;;22.77;11.18;;;;;;;;;;5020299;28;20018;-54
2022/03/11 02:56:50;;;;;;;20.30;10.70;;;;;;;;;;5020289;28;20021;-53
2022/03/11 02:59:17;;;;;;;41.58;18.10;;;;;;;;;;5019937;28;20434;-53
2022/03/11 03:01:43;;;;;;;25.00;11.23;;;;;;;;;;5020289;28;20075;-52
2022/03/11 03:04:11;;;;;;;26.02;12.88;;;;;;;;;;5020000;28;20024;-54
2022/03/11 03:06:37;;;;;;;30.00;12.50;;;;;;;;;;5019539;28;20025;-53
2022/03/11 03:09:03;;;;;;;22.70;11.18;;;;;;;;;;5020108;28;20033;-54
2022/03/11 03:11:29;;;;;;;27.40;12.77;;;;;;;;;;5020005;28;20030;-53
2022/03/11 03:13:56;;;;;;;23.73;11.95;;;;;;;;;;5020150;28;20026;-56
2022/03/11 03:16:22;;;;;;;19.73;10.30;;;;;;;;;;5020044;28;20037;-51
2022/03/11 03:18:48;;;;;;;20.98;10.15;;;;;;;;;;5019951;28;20034;-56
2022/03/11 03:21:14;;;;;;;17.55;10.48;;;;;;;;;;5019802;28;20029;-55
2022/03/11 03:23:40;;;;;;;23.30;11.60;;;;;;;;;;5019803;28;20018;-54
2022/03/11 03:26:06;;;;;;;36.45;15.50;;;;;;;;;;5019757;28;20022;-55
2022/03/11 03:28:33;;;;;;;35.42;15.73;;;;;;;;;;5019967;28;20030;-53
2022/03/11 03:30:59;;;;;;;23.23;10.93;;;;;;;;;;5019716;28;20557;-53
2022/03/11 03:33:25;;;;;;;20.15;10.07;;;;;;;;;;5011463;28;20030;-55
2022/03/11 03:35:51;;;;;;;20.63;10.32;;;;;;;;;;5000313;28;20030;-54
2022/03/11 03:38:17;;;;;;;17.55;9.73;;;;;;;;;;5000036;28;20106;-53
2022/03/11 03:40:43;;;;;;;21.73;10.43;;;;;;;;;;4999976;28;20018;-55
2022/03/11 03:43:10;;;;;;;16.50;9.77;;;;;;;;;;5000693;28;20069;-54
2022/03/11 03:45:36;;;;;;;20.23;9.75;;;;;;;;;;5000468;28;20057;-52
2022/03/11 03:48:02;;;;;;;17.95;9.93;;;;;;;;;;5000038;28;20514;-52
2022/03/11 03:50:29;;;;;;;20.80;10.38;;;;;;;;;;4999994;28;20076;-51
2022/03/11 03:52:55;;;;;;;27.35;12.50;;;;;;;;;;4996856;28;20025;-52
2022/03/11 03:55:21;;;;;;;19.90;11.05;;;;;;;;;;4996977;28;20034;-52
2022/03/11 03:57:47;;;;;;;35.90;15.02;;;;;;;;;;4997049;28;20038;-50
2022/03/11 04:00:13;;;;;;;28.35;12.48;;;;;;;;;;4997146;28;20363;-53
2022/03/11 04:02:46;;;;;;;25.75;11.63;;;;;;;;;;4996867;28;20030;-52
2022/03/11 04:05:13;;;;;;;17.67;9.80;;;;;;;;;;4997365;28;20015;-54
2022/03/11 04:07:40;;;;;;;31.58;13.07;;;;;;;;;;4996441;28;20360;-55
2022/03/11 04:10:06;;;;;;;23.67;11.93;;;;;;;;;;4996791;28;20026;-51
2022/03/11 04:12:32;;;;;;;36.10;15.70;;;;;;;;;;4996518;28;20073;-56
2022/03/11 04:14:59;;;;;;;75.78;29.27;;;;;;;;;;4996352;28;20471;-53
2022/03/11 04:17:25;;;;;;;23.70;13.15;;;;;;;;;;4996899;28;20419;-55
2022/03/11 04:19:51;;;;;;;31.38;14.48;;;;;;;;;;4996356;28;20029;-50
2022/03/11 04:22:17;;;;;;;24.95;12.25;;;;;;;;;;4996371;28;20105;-52
2022/03/11 04:24:43;;;;;;;18.48;10.55;;;;;;;;;;4996297;28;20022;-53
2022/03/11 04:27:09;;;;;;;21.65;9.65;;;;;;;;;;4996414;28;20027;-52
2022/03/11 04:29:37;;;;;;;26.17;11.60;;;;;;;;;;4995889;28;20029;-53
2022/03/11 04:32:03;;;;;;;26.95;13.10;;;;;;;;;;4996076;28;20030;-53
2022/03/11 04:34:29;;;;;;;24.67;11.13;;;;;;;;;;4996432;28;20026;-52
2022/03/11 04:36:56;;;;;;;31.58;13.88;;;;;;;;;;4996096;28;20459;-55
2022/03/11 04:39:26;;;;;;;23.20;11.63;;;;;;;;;;4995906;28;20057;-51
2022/03/11 04:41:53;;;;;;;28.38;13.63;;;;;;;;;;4994815;28;20058;-52
2022/03/11 04:44:19;;;;;;;39.28;17.70;;;;;;;;;;4995821;28;20375;-55
2022/03/11 04:46:46;;;;;;;45.05;19.42;;;;;;;;;;4995839;28;20491;-52
2022/03/11 04:49:12;;;;;;;45.78;19.23;;;;;;;;;;4995628;28;20061;-53
2022/03/11 04:51:39;;;;;;;71.70;26.55;;;;;;;;;;4995638;28;20026;-54
2022/03/11 04:54:06;;;;;;;57.70;23.25;;;;;;;;;;4995791;28;20030;-55
2022/03/11 04:56:33;;;;;;;43.80;18.77;;;;;;;;;;4995275;28;20104;-52
2022/03/11 04:59:00;;;;;;;45.83;19.95;;;;;;;;;;4995955;28;20037;-51
2022/03/11 05:01:26;;;;;;;48.80;20.48;;;;;;;;;;4996063;28;20030;-54
2022/03/11 05:03:52;;;;;;;40.80;19.73;;;;;;;;;;4995052;28;20476;-54
2022/03/11 05:06:18;;;;;;;71.88;30.55;;;;;;;;;;4995782;28;20483;-56
2022/03/11 05:08:44;;;;;;;65.70;27.08;;;;;;;;;;4995405;28;20034;-53
2022/03/11 05:11:11;;;;;;;48.65;21.50;;;;;;;;;;4994974;28;20093;-53
2022/03/11 05:13:37;;;;;;;57.17;24.83;;;;;;;;;;4995563;28;20368;-54
2022/03/11 05:16:04;;;;;;;59.47;26.27;;;;;;;;;;4995291;28;20022;-56
2022/03/11 05:18:30;;;;;;;79.60;31.33;;;;;;;;;;4995496;28;20026;-52
2022/03/11 05:20:56;;;;;;;83.35;32.50;;;;;;;;;;4994180;28;20503;-53
2022/03/11 05:23:22;;;;;;;75.35;29.98;;;;;;;;;;4993974;28;20030;-54
2022/03/11 05:25:49;;;;;;;81.50;32.15;;;;;;;;;;4994852;28;20041;-52
2022/03/11 05:28:15;;;;;;;83.43;34.08;;;;;;;;;;4993895;28;20045;-54
2022/03/11 05:30:41;;;;;;;114.03;44.35;;;;;;;;;;4976181;28;20031;-53
2022/03/11 05:33:08;;;;;;;108.20;43.65;;;;;;;;;;4976789;28;20125;-55
2022/03/11 05:35:34;;;;;;;75.93;32.00;;;;;;;;;;4984361;28;20022;-54
2022/03/11 05:38:00;;;;;;;144.43;55.20;;;;;;;;;;4985935;28;20033;-54
2022/03/11 05:40:26;;;;;;;191.00;71.35;;;;;;;;;;4984563;28;20103;-51
2022/03/11 05:42:53;;;;;;;178.80;68.43;;;;;;;;;;4984094;28;20057;-53
2022/03/11 05:45:19;;;;;;;111.93;47.78;;;;;;;;;;4976154;28;20033;-53
2022/03/11 05:47:45;;;;;;;106.22;44.78;;;;;;;;;;4975434;28;20039;-55
2022/03/11 05:50:12;;;;;;;58.30;28.23;;;;;;;;;;4984249;28;20027;-53
2022/03/11 05:52:39;;;;;;;71.40;31.17;;;;;;;;;;4994695;28;20092;-54
2022/03/11 05:55:06;;;;;;;75.50;34.90;;;;;;;;;;5003783;28;20022;-52
2022/03/11 05:57:32;;;;;;;53.85;26.38;;;;;;;;;;5013170;28;20030;-54
2022/03/11 05:59:58;;;;;;;35.15;17.80;;;;;;;;;;5001352;28;20106;-55
2022/03/11 06:02:24;;;;;;;25.00;13.00;;;;;;;;;;4995069;28;20023;-54
2022/03/11 06:04:51;;;;;;;22.85;12.40;;;;;;;;;;4995204;28;20471;-53
2022/03/11 06:07:17;;;;;;;22.55;12.75;;;;;;;;;;5000846;28;20449;-55
2022/03/11 06:09:43;;;;;;;33.50;15.60;;;;;;;;;;5014268;28;20025;-53
2022/03/11 06:12:10;;;;;;;28.75;15.05;;;;;;;;;;5014254;28;20022;-55
2022/03/11 06:14:36;;;;;;;25.65;13.35;;;;;;;;;;5013330;28;20026;-52
2022/03/11 06:17:02;;;;;;;19.05;11.50;;;;;;;;;;5014204;28;20033;-56
2022/03/11 06:19:28;;;;;;;25.10;14.15;;;;;;;;;;5014180;28;20497;-56
2022/03/11 06:21:57;;;;;;;25.27;12.57;;;;;;;;;;5014525;28;20033;-55
2022/03/11 06:24:23;;;;;;;22.13;13.02;;;;;;;;;;5015881;28;20037;-54
2022/03/11 06:26:49;;;;;;;24.08;13.32;;;;;;;;;;5015487;28;20378;-49
2022/03/11 06:29:16;;;;;;;31.48;15.70;;;;;;;;;;5015174;28;20033;-50
2022/03/11 06:31:42;;;;;;;25.50;14.43;;;;;;;;;;5015377;28;20060;-52
2022/03/11 06:34:08;;;;;;;28.33;14.63;;;;;;;;;;5014438;28;20108;-48
2022/03/11 06:36:34;;;;;;;25.10;13.13;;;;;;;;;;5014339;28;20022;-50
2022/03/11 06:39:01;;;;;;;26.83;12.45;;;;;;;;;;5014652;28;20033;-53
2022/03/11 06:41:27;;;;;;;22.25;12.32;;;;;;;;;;4992236;28;20043;-49
2022/03/11 06:43:53;;;;;;;21.20;11.30;;;;;;;;;;4974848;28;20027;-52
2022/03/11 06:46:19;;;;;;;22.17;12.27;;;;;;;;;;4974535;28;20023;-51
2022/03/11 06:48:45;;;;;;;22.25;12.88;;;;;;;;;;4974449;28;20066;-50
2022/03/11 06:51:12;;;;;;;20.70;11.90;;;;;;;;;;4973385;28;20035;-53
2022/03/11 06:53:38;;;;;;;21.48;11.45;;;;;;;;;;4974378;28;20518;-53
2022/03/11 06:56:04;;;;;;;17.45;9.98;;;;;;;;;;4972755;28;20074;-53
2022/03/11 06:58:33;;;;;;;19.08;10.45;;;;;;;;;;4973557;28;20031;-53
2022/03/11 07:00:59;;;;;;;21.23;10.77;;;;;;;;;;4973689;28;20054;-53
2022/03/11 07:03:25;;;;;;;21.25;10.98;;;;;;;;;;4973519;28;20023;-49
2022/03/11 07:05:51;;;;;;;17.63;10.68;;;;;;;;;;4973849;28;20472;-53
2022/03/11 07:08:17;;;;;;;25.15;12.30;;;;;;;;;;4974382;28;20215;-55
2022/03/11 07:10:43;;;;;;;23.40;12.57;;;;;;;;;;4974105;28;20473;-56
2022/03/11 07:13:10;;;;;;;22.33;12.20;;;;;;;;;;4974331;28;20614;-56
2022/03/11 07:15:36;;;;;;;19.90;11.77;;;;;;;;;;4973388;28;20464;-52
2022/03/11 07:18:02;;;;;;;21.23;11.95;;;;;;;;;;4974048;28;20034;-54
2022/03/11 07:20:28;;;;;;;18.58;11.43;;;;;;;;;;4974270;28;20041;-52
2022/03/11 07:22:54;;;;;;;22.45;11.68;;;;;;;;;;4974568;28;20118;-54
2022/03/11 07:25:20;;;;;;;18.20;9.95;;;;;;;;;;4974513;28;20026;-54
2022/03/11 07:27:48;;;;;;;19.95;10.23;;;;;;;;;;4976533;28;20038;-52
2022/03/11 07:30:14;;;;;;;17.00;10.75;;;;;;;;;;4977998;28;20023;-52
2022/03/11 07:32:40;;;;;;;17.55;10.60;;;;;;;;;;4978637;28;20508;-51
2022/03/11 07:35:08;;;;;;;16.88;9.75;;;;;;;;;;4978403;28;20037;-47
2022/03/11 07:37:35;;;;;;;21.63;12.38;;;;;;;;;;4977470;28;20436;-52
2022/03/11 07:40:01;;;;;;;19.15;10.10;;;;;;;;;;4977668;28;20427;-56
2022/03/11 07:42:27;;;;;;;21.80;11.52;;;;;;;;;;4978252;28;20050;-50
2022/03/11 07:44:54;;;;;;;19.58;11.57;;;;;;;;;;4977609;28;20019;-53
2022/03/11 07:47:20;;;;;;;20.35;10.60;;;;;;;;;;4977585;28;20055;-55
2022/03/11 07:49:47;;;;;;;21.40;10.32;;;;;;;;;;4977521;28;20031;-56
2022/03/11 07:52:15;;;;;;;15.90;9.57;;;;;;;;;;4977381;28;20062;-49
2022/03/11 07:54:42;;;;;;;18.15;11.05;;;;;;;;;;4978004;28;20095;-53
2022/03/11 07:57:09;;;;;;;15.70;9.98;;;;;;;;;;4977728;28;20092;-52
2022/03/11 07:59:37;;;;;;;19.80;11.45;;;;;;;;;;4976991;28;20030;-53
2022/03/11 08:02:03;;;;;;;21.38;12.23;;;;;;;;;;4977498;28;20030;-56
2022/03/11 08:04:29;;;;;;;19.67;11.15;;;;;;;;;;4977438;28;20046;-56
2022/03/11 08:06:59;;;;;;;19.35;11.43;;;;;;;;;;4977071;28;20085;-55
2022/03/11 08:09:25;;;;;;;18.83;10.07;;;;;;;;;;4976020;28;20388;-53
2022/03/11 08:11:51;;;;;;;15.35;9.75;;;;;;;;;;4977032;28;20110;-54
2022/03/11 08:14:17;;;;;;;18.67;11.30;;;;;;;;;;4976758;28;20023;-56
2022/03/11 08:16:43;;;;;;;18.42;10.40;;;;;;;;;;4977041;28;20027;-53
2022/03/11 08:19:09;;;;;;;17.95;10.90;;;;;;;;;;4977099;28;20080;-55
2022/03/11 08:21:36;;;;;;;21.83;12.40;;;;;;;;;;4976631;28;20055;-54
2022/03/11 08:24:02;;;;;;;23.05;12.80;;;;;;;;;;4977065;28;20022;-53
2022/03/11 08:26:28;;;;;;;20.00;11.63;;;;;;;;;;4976565;28;20037;-56
2022/03/11 08:28:54;;;;;;;18.83;11.70;;;;;;;;;;4977035;28;20077;-54
2022/03/11 08:31:20;;;;;;;21.80;13.07;;;;;;;;;;4977101;28;20023;-56
2022/03/11 08:33:47;;;;;;;19.85;11.90;;;;;;;;;;4976474;28;20029;-52
2022/03/11 08:36:13;;;;;;;21.10;12.07;;;;;;;;;;4976892;28;20093;-54
2022/03/11 08:38:40;;;;;;;20.38;12.05;;;;;;;;;;4976267;28;20033;-54
2022/03/11 08:41:07;;;;;;;19.33;11.55;;;;;;;;;;4976107;28;20030;-49
2022/03/11 08:43:34;;;;;;;21.67;11.07;;;;;;;;;;4977011;28;20077;-54
2022/03/11 08:46:02;;;;;;;19.95;11.07;;;;;;;;;;4976776;28;20130;-55
2022/03/11 08:48:28;;;;;;;20.30;11.95;;;;;;;;;;4976338;28;20114;-54
2022/03/11 08:50:54;;;;;;;23.80;12.27;;;;;;;;;;4976904;28;20023;-54
2022/03/11 08:53:21;;;;;;;23.98;13.85;;;;;;;;;;4976677;28;20472;-52
2022/03/11 08:55:47;;;;;;;20.63;12.38;;;;;;;;;;4976187;28;20031;-53
2022/03/11 08:58:13;;;;;;;21.02;12.73;;;;;;;;;;4976999;28;20439;-53
2022/03/11 09:00:41;;;;;;;24.30;14.10;;;;;;;;;;4976219;28;20023;-55
2022/03/11 09:03:07;;;;;;;20.00;11.82;;;;;;;;;;4976301;28;20027;-48
2022/03/11 09:05:33;;;;;;;22.65;12.13;;;;;;;;;;4983571;28;20056;-50
2022/03/11 09:08:01;;;;;;;15.82;10.15;;;;;;;;;;4983988;28;20058;-56
2022/03/11 09:10:27;;;;;;;18.85;10.63;;;;;;;;;;4983862;28;20105;-57
2022/03/11 09:12:53;;;;;;;22.95;13.88;;;;;;;;;;4985697;28;20023;-53
2022/03/11 09:15:19;;;;;;;18.38;10.60;;;;;;;;;;4984786;28;20030;-53
2022/03/11 09:17:46;;;;;;;17.52;10.95;;;;;;;;;;4984809;28;20028;-53
2022/03/11 09:20:12;;;;;;;18.58;11.25;;;;;;;;;;4986027;28;20113;-54
2022/03/11 09:22:40;;;;;;;17.10;10.88;;;;;;;;;;4983477;28;20408;-54
2022/03/11 09:25:07;;;;;;;25.58;13.35;;;;;;;;;;4984873;28;20526;-52
2022/03/11 09:27:34;;;;;;;20.17;11.32;;;;;;;;;;4986188;28;20034;-50
2022/03/11 09:30:00;;;;;;;17.70;11.30;;;;;;;;;;4980447;28;20034;-52
2022/03/11 09:32:26;;;;;;;19.23;11.63;;;;;;;;;;4983863;28;20029;-51
2022/03/11 09:34:53;;;;;;;19.25;11.27;;;;;;;;;;4985321;28;20019;-55
2022/03/11 09:37:19;;;;;;;17.58;10.80;;;;;;;;;;4985697;28;20023;-54
2022/03/11 09:39:46;;;;;;;17.40;10.65;;;;;;;;;;4983707;28;20049;-54
2022/03/11 09:42:12;;;;;;;19.23;11.93;;;;;;;;;;4984738;28;20108;-53
2022/03/11 09:44:39;;;;;;;19.58;12.88;;;;;;;;;;4985375;28;20031;-50
2022/03/11 09:47:06;;;;;;;19.27;12.48;;;;;;;;;;4983798;28;20046;-56
2022/03/11 09:49:35;;;;;;;20.17;13.52;;;;;;;;;;4983881;28;20034;-56
2022/03/11 09:52:07;;;;;;;23.55;13.32;;;;;;;;;;4985456;28;20478;-52
2022/03/11 09:54:34;;;;;;;17.63;12.50;;;;;;;;;;4984978;28;20034;-52
2022/03/11 09:57:00;;;;;;;20.50;12.35;;;;;;;;;;4986658;28;20549;-51
2022/03/11 09:59:30;;;;;;;21.25;13.30;;;;;;;;;;4985228;28;20049;-52
2022/03/11 10:01:57;;;;;;;20.05;12.48;;;;;;;;;;4983114;28;20023;-56
2022/03/11 10:04:24;;;;;;;20.13;12.48;;;;;;;;;;4983090;28;20034;-51
2022/03/11 10:06:52;;;;;;;19.23;12.48;;;;;;;;;;4977202;28;20027;-53
2022/03/11 10:09:18;;;;;;;18.13;12.32;;;;;;;;;;4975069;28;20089;-53
2022/03/11 10:11:55;;;;;;;24.52;12.85;;;;;;;;;;4982345;28;20023;-55
2022/03/11 10:14:32;;;;;;;16.88;10.48;;;;;;;;;;4986055;28;20080;-53
2022/03/11 10:16:59;;;;;;;19.10;10.68;;;;;;;;;;4984643;28;20488;-52
2022/03/11 10:19:25;;;;;;;18.58;12.00;;;;;;;;;;4981716;28;20388;-58
2022/03/11 10:21:51;;;;;;;17.02;10.73;;;;;;;;;;4981649;28;20503;-56
2022/03/11 10:24:19;;;;;;;17.52;11.45;;;;;;;;;;4982876;28;20106;-54
2022/03/11 10:26:47;;;;;;;31.25;17.05;;;;;;;;;;4983545;28;20483;-53
2022/03/11 10:29:15;;;;;;;16.48;10.88;;;;;;;;;;4985023;28;20033;-54
2022/03/11 10:31:43;;;;;;;19.10;11.80;;;;;;;;;;4983515;28;20538;-57
2022/03/11 10:34:13;;;;;;;16.23;10.85;;;;;;;;;;4983281;28;20027;-54
2022/03/11 10:36:50;;;;;;;17.10;10.70;;;;;;;;;;4982305;28;20431;-57
2022/03/11 10:39:17;;;;;;;16.17;10.80;;;;;;;;;;4982817;28;20050;-55
2022/03/11 10:41:44;;;;;;;17.67;11.30;;;;;;;;;;4984487;28;20074;-51
2022/03/11 10:44:12;;;;;;;16.80;11.10;;;;;;;;;;4984598;28;20046;-50
2022/03/11 10:46:38;;;;;;;18.50;11.77;;;;;;;;;;4982671;28;20078;-50
2022/03/11 10:49:05;;;;;;;22.70;14.13;;;;;;;;;;4983608;28;20027;-49
2022/03/11 10:51:32;;;;;;;16.45;11.20;;;;;;;;;;4985012;28;20015;-49
2022/03/11 10:54:03;;;;;;;16.10;11.95;;;;;;;;;;4982680;28;20034;-49
2022/03/11 10:56:35;;;;;;;18.45;12.75;;;;;;;;;;4983686;28;20015;-48
2022/03/11 10:59:12;;;;;;;17.13;11.75;;;;;;;;;;4982148;28;20421;-49
2022/03/11 11:01:45;;;;;;;14.77;11.20;;;;;;;;;;4984534;28;20068;-58
2022/03/11 11:04:13;;;;;;;16.35;11.35;;;;;;;;;;4987726;28;20483;-55
2022/03/11 11:06:39;;;;;;;16.25;11.77;;;;;;;;;;4986678;28;20054;-57
2022/03/11 11:09:07;;;;;;;18.20;12.02;;;;;;;;;;4986593;28;20022;-58
2022/03/11 11:11:34;;;;;;;19.30;12.43;;;;;;;;;;4987462;28;20018;-54
2022/03/11 11:14:04;;;;;;;16.27;11.45;;;;;;;;;;4988584;28;20034;-55
2022/03/11 11:16:31;;;;;;;19.77;14.30;;;;;;;;;;4987115;28;20015;-57
2022/03/11 11:18:58;;;;;;;16.83;11.10;;;;;;;;;;4985952;28;20101;-54
2022/03/11 11:21:25;;;;;;;20.05;11.57;;;;;;;;;;4985844;28;20182;-50
2022/03/11 11:23:54;;;;;;;16.45;11.35;;;;;;;;;;4993548;28;20033;-52
2022/03/11 11:26:22;;;;;;;13.80;10.05;;;;;;;;;;4997757;28;20023;-56
2022/03/11 11:28:49;;;;;;;15.68;11.18;;;;;;;;;;4993319;28;20038;-56
2022/03/11 11:31:17;;;;;;;18.98;12.18;;;;;;;;;;4997615;28;20026;-56
2022/03/11 11:33:44;;;;;;;17.83;12.52;;;;;;;;;;4996332;28;20460;-53
2022/03/11 11:36:11;;;;;;;15.85;11.73;;;;;;;;;;4996798;28;20022;-55
2022/03/11 11:38:42;;;;;;;14.88;10.43;;;;;;;;;;4989809;28;20027;-58
2022/03/11 11:41:28;;;;;;;13.73;10.93;;;;;;;;;;4986727;28;20034;-56
2022/03/11 11:44:00;;;;;;;17.42;10.88;;;;;;;;;;4995388;28;20154;-54
2022/03/11 11:46:26;;;;;;;18.77;11.52;;;;;;;;;;4995237;28;20467;-51
2022/03/11 11:48:52;;;;;;;23.73;13.25;;;;;;;;;;4994796;28;20455;-55
2022/03/11 11:51:37;;;;;;;27.20;12.90;;;;;;;;;;4996257;28;20072;-56
2022/03/11 11:54:11;;;;;;;20.80;13.18;;;;;;;;;;4996385;28;20475;-57
2022/03/11 11:56:39;;;;;;;15.40;10.63;;;;;;;;;;4996387;28;20426;-53
2022/03/11 11:59:05;;;;;;;14.43;9.82;;;;;;;;;;4997059;28;20034;-56
2022/03/11 12:01:40;;;;;;;14.63;10.48;;;;;;;;;;4997039;28;20077;-54
2022/03/11 12:04:25;;;;;;;13.43;10.80;;;;;;;;;;4996701;28;20028;-55
2022/03/11 12:06:55;;;;;;;13.02;10.00;;;;;;;;;;4996864;28;20084;-52
2022/03/11 12:09:42;;;;;;;13.60;10.20;;;;;;;;;;4996449;28;20026;-55
2022/03/11 12:12:10;;;;;;;13.00;8.82;;;;;;;;;;4996015;28;20054;-57
2022/03/11 12:14:54;;;;;;;13.40;10.18;;;;;;;;;;4996431;28;20026;-55
2022/03/11 12:17:39;;;;;;;14.35;9.10;;;;;;;;;;4996638;28;20084;-54
2022/03/11 12:20:24;;;;;;;13.48;9.80;;;;;;;;;;4996365;28;20023;-55
2022/03/11 12:22:52;;;;;;;15.63;11.15;;;;;;;;;;4996882;28;20026;-54
2022/03/11 12:25:21;;;;;;;12.40;9.07;;;;;;;;;;4996203;28;20030;-51
2022/03/11 12:27:59;;;;;;;15.40;10.85;;;;;;;;;;4996131;28;20030;-55
2022/03/11 12:30:26;;;;;;;16.67;11.07;;;;;;;;;;4996191;28;20137;-53
2022/03/11 12:32:52;;;;;;;15.60;9.85;;;;;;;;;;4996327;28;20026;-54
2022/03/11 12:35:19;;;;;;;13.50;9.05;;;;;;;;;;4996683;28;20034;-56
2022/03/11 12:37:45;;;;;;;18.88;10.98;;;;;;;;;;4996392;28;20375;-55
2022/03/11 12:40:12;;;;;;;17.13;9.70;;;;;;;;;;4996002;28;20424;-53
2022/03/11 12:42:39;;;;;;;14.02;9.25;;;;;;;;;;4996431;28;20426;-52
2022/03/11 12:45:06;;;;;;;19.77;11.98;;;;;;;;;;4996527;28;20026;-56
2022/03/11 12:47:39;;;;;;;13.15;9.70;;;;;;;;;;4995819;28;20076;-54
2022/03/11 12:50:06;;;;;;;17.42;11.25;;;;;;;;;;4996185;28;20027;-53
2022/03/11 12:52:37;;;;;;;13.27;9.45;;;;;;;;;;4995673;28;20022;-54
2022/03/11 12:55:30;;;;;;;14.48;9.20;;;;;;;;;;4996336;28;20109;-55
2022/03/11 12:57:56;;;;;;;14.82;9.30;;;;;;;;;;4995905;28;20085;-57
2022/03/11 13:00:24;;;;;;;15.25;9.75;;;;;;;;;;4995469;28;20026;-54
2022/03/11 13:02:50;;;;;;;15.48;8.45;;;;;;;;;;4995896;28;20100;-55
2022/03/11 13:05:21;;;;;;;14.98;9.73;;;;;;;;;;4995872;28;20114;-50
2022/03/11 13:07:47;;;;;;;21.77;11.07;;;;;;;;;;4995620;28;20018;-54
2022/03/11 13:10:26;;;;;;;15.10;9.50;;;;;;;;;;4996046;28;20376;-56
2022/03/11 13:12:53;;;;;;;16.00;8.23;;;;;;;;;;4996253;28;20023;-52
2022/03/11 13:15:23;;;;;;;15.23;9.20;;;;;;;;;;4995140;28;20027;-53
2022/03/11 13:17:54;;;;;;;13.90;8.15;;;;;;;;;;4996044;28;20023;-54
2022/03/11 13:20:27;;;;;;;11.70;8.40;;;;;;;;;;4995000;28;20513;-50
2022/03/11 13:22:53;;;;;;;14.10;9.43;;;;;;;;;;4995860;28;20080;-50
2022/03/11 13:25:25;;;;;;;22.08;10.68;;;;;;;;;;4995748;28;20077;-56
2022/03/11 13:27:52;;;;;;;17.85;11.20;;;;;;;;;;4993777;28;20454;-53
2022/03/11 13:30:32;;;;;;;18.35;11.80;;;;;;;;;;4995218;28;20054;-52
2022/03/11 13:33:09;;;;;;;39.58;19.23;;;;;;;;;;4995280;28;20027;-52
2022/03/11 13:35:35;;;;;;;25.33;14.63;;;;;;;;;;4993801;28;20027;-53
2022/03/11 13:38:01;;;;;;;22.17;11.13;;;;;;;;;;4995028;28;20057;-52
2022/03/11 13:40:27;;;;;;;24.83;13.82;;;;;;;;;;4995423;28;20379;-50
2022/03/11 13:42:59;;;;;;;28.13;15.82;;;;;;;;;;4994931;28;20047;-54
2022/03/11 13:45:25;;;;;;;;;;;;;;;;;;4995312;28;20023;-52
2022/03/11 13:48:04;;;;;;;15.15;9.35;;;;;;;;;;4994679;28;19906;-53
2022/03/11 13:50:31;;;;;;;14.73;8.75;;;;;;;;;;4994380;28;20027;-56
2022/03/11 13:52:58;;;;;;;17.60;10.45;;;;;;;;;;4994991;28;20386;-52
2022/03/11 13:55:38;;;;;;;20.55;11.88;;;;;;;;;;4994878;28;20022;-54
2022/03/11 13:58:33;;;;;;;17.17;9.73;;;;;;;;;;4994544;28;20027;-54
2022/03/11 14:01:09;;;;;;;21.02;11.27;;;;;;;;;;4977977;28;20035;-55
2022/03/11 14:04:02;;;;;;;13.80;8.57;;;;;;;;;;4994520;28;20032;-55
2022/03/11 14:06:29;;;;;;;12.57;7.43;;;;;;;;;;4991060;28;20161;-55
2022/03/11 14:08:56;;;;;;;15.75;8.93;;;;;;;;;;4994190;28;20080;-51
2022/03/11 14:11:23;;;;;;;15.43;10.15;;;;;;;;;;4994580;28;20034;-51
2022/03/11 14:13:50;;;;;;;18.05;9.40;;;;;;;;;;4994243;28;20072;-50
2022/03/11 14:16:16;;;;;;;15.60;9.60;;;;;;;;;;4994675;28;20085;-55
2022/03/11 14:18:43;;;;;;;18.08;10.48;;;;;;;;;;4994281;28;20033;-50
2022/03/11 14:21:09;;;;;;;20.23;11.77;;;;;;;;;;4994200;28;20026;-53